Time;durP1;ratioP1;P1;durP2;ratioP2;P2;SDS_P1;SDS_P2;PMS_P1;PMS_P2;Temp;Humidity;BMP_temperature;BMP_pressure;BME280_temperature;BME280_humidity;BME280_pressure;Samples;Min_cycle;Max_cycle;Signal;HPM_P1;HPM_P2
2024/02/19 00:01:31;;;;;;;102.63;78.47;;;10.50;99.90;;;;;;4907814;29;20025;-78
2024/02/19 00:03:57;;;;;;;100.57;78.10;;;10.50;99.90;;;;;;4907961;29;20040;-79
2024/02/19 00:06:23;;;;;;;100.90;78.15;;;10.50;99.90;;;;;;4918515;29;20024;-78
2024/02/19 00:08:50;;;;;;;102.05;75.40;;;10.50;99.90;;;;;;4908388;29;20028;-78
2024/02/19 00:11:16;;;;;;;96.97;75.28;;;10.50;99.90;;;;;;4904262;29;20480;-78
2024/02/19 00:13:43;;;;;;;97.88;74.75;;;10.50;99.90;;;;;;4907404;29;20035;-78
2024/02/19 00:16:09;;;;;;;98.05;76.05;;;10.50;99.90;;;;;;4906443;29;20051;-78
2024/02/19 00:18:35;;;;;;;99.00;76.30;;;10.50;99.90;;;;;;4908934;29;20486;-78
2024/02/19 00:21:01;;;;;;;94.70;74.22;;;10.50;99.90;;;;;;4913754;29;20037;-78
2024/02/19 00:23:27;;;;;;;97.38;72.53;;;10.50;99.90;;;;;;4904393;29;20052;-78
2024/02/19 00:25:53;;;;;;;93.85;76.25;;;10.50;99.90;;;;;;4907142;29;20035;-78
2024/02/19 00:28:19;;;;;;;89.18;68.60;;;10.60;99.90;;;;;;4905376;29;20063;-78
2024/02/19 00:30:44;;;;;;;88.45;67.15;;;10.60;99.90;;;;;;4930183;29;20028;-78
2024/02/19 00:33:10;;;;;;;93.07;72.88;;;10.60;99.90;;;;;;4908295;29;20032;-78
2024/02/19 00:35:36;;;;;;;94.80;72.72;;;10.60;99.90;;;;;;4904157;29;20024;-78
2024/02/19 00:38:01;;;;;;;90.97;69.65;;;10.60;99.90;;;;;;4907833;29;20024;-78
2024/02/19 00:40:27;;;;;;;92.75;74.43;;;10.50;99.90;;;;;;4904958;29;20487;-78
2024/02/19 00:42:53;;;;;;;101.43;75.63;;;10.50;99.90;;;;;;4907203;29;20402;-78
2024/02/19 00:45:19;;;;;;;95.88;73.28;;;10.50;99.90;;;;;;4905253;29;20056;-78
2024/02/19 00:47:44;;;;;;;95.25;69.28;;;10.50;99.90;;;;;;4907923;29;20033;-78
2024/02/19 00:50:10;;;;;;;97.13;73.25;;;10.50;99.90;;;;;;4904172;29;20120;-78
2024/02/19 00:52:40;;;;;;;94.78;70.38;;;10.50;99.90;;;;;;4904346;29;20028;-78
2024/02/19 00:55:06;;;;;;;101.50;73.10;;;10.50;99.90;;;;;;4913358;29;20032;-78
2024/02/19 00:57:32;;;;;;;95.70;72.38;;;10.50;99.90;;;;;;4908450;29;20075;-78
2024/02/19 00:59:58;;;;;;;89.65;71.65;;;10.50;99.90;;;;;;4918955;29;20445;-78
2024/02/19 01:02:24;;;;;;;92.45;70.47;;;10.40;99.90;;;;;;4907495;29;20040;-78
2024/02/19 01:04:53;;;;;;;94.35;74.13;;;10.40;99.90;;;;;;4903905;29;20024;-78
2024/02/19 01:07:20;;;;;;;96.15;73.47;;;10.40;99.90;;;;;;4904286;29;20020;-78
2024/02/19 01:09:55;;;;;;;91.03;70.68;;;10.40;99.90;;;;;;4912441;29;20025;-78
2024/02/19 01:12:21;;;;;;;93.80;70.43;;;10.40;99.90;;;;;;4907847;29;20061;-78
2024/02/19 01:14:47;;;;;;;90.22;68.80;;;10.40;99.90;;;;;;4907122;29;20071;-78
2024/02/19 01:17:13;;;;;;;87.38;68.47;;;10.40;99.90;;;;;;4906258;29;20505;-78
2024/02/19 01:19:39;;;;;;;90.25;69.88;;;10.40;99.90;;;;;;4903769;29;20038;-78
2024/02/19 01:22:05;;;;;;;90.07;68.90;;;10.40;99.90;;;;;;4906916;29;20511;-78
2024/02/19 01:24:33;;;;;;;90.32;70.75;;;10.40;99.90;;;;;;4902884;29;20080;-78
2024/02/19 01:27:02;;;;;;;93.47;71.85;;;10.40;99.90;;;;;;4905029;29;20029;-78
2024/02/19 01:29:27;;;;;;;94.07;69.93;;;10.40;99.90;;;;;;4919879;29;20040;-78
2024/02/19 01:31:53;;;;;;;92.72;71.80;;;10.40;99.90;;;;;;4903809;29;20419;-78
2024/02/19 01:34:19;;;;;;;91.18;70.75;;;10.30;99.90;;;;;;4904993;29;20036;-78
2024/02/19 01:36:46;;;;;;;90.40;68.70;;;10.40;99.90;;;;;;4920655;29;20036;-78
2024/02/19 01:39:12;;;;;;;91.07;69.50;;;10.40;99.90;;;;;;4904231;29;20025;-78
2024/02/19 01:41:38;;;;;;;88.45;69.80;;;10.40;99.90;;;;;;4907134;29;20091;-78
2024/02/19 01:44:08;;;;;;;88.72;68.28;;;10.30;99.90;;;;;;4903642;29;20036;-78
2024/02/19 01:46:38;;;;;;;94.93;71.38;;;10.30;99.90;;;;;;4921843;29;20080;-78
2024/02/19 01:49:04;;;;;;;88.45;67.60;;;10.20;99.90;;;;;;4905720;29;20024;-78
2024/02/19 01:51:31;;;;;;;93.93;70.70;;;10.20;99.90;;;;;;4905394;29;20441;-78
2024/02/19 01:53:57;;;;;;;89.18;68.70;;;10.20;99.90;;;;;;4905069;29;20119;-78
2024/02/19 01:56:23;;;;;;;88.10;68.40;;;10.20;99.90;;;;;;4913075;29;20071;-78
2024/02/19 01:58:50;;;;;;;94.75;68.30;;;10.20;99.90;;;;;;4904355;29;20468;-78
2024/02/19 02:01:16;;;;;;;90.03;67.13;;;10.30;99.90;;;;;;4910826;29;20028;-78
2024/02/19 02:03:43;;;;;;;92.45;69.07;;;10.30;99.90;;;;;;4914309;29;20035;-78
2024/02/19 02:06:09;;;;;;;91.72;70.03;;;10.30;99.90;;;;;;4903871;29;20076;-78
2024/02/19 02:08:40;;;;;;;87.47;70.55;;;10.30;99.90;;;;;;4908809;29;20123;-78
2024/02/19 02:11:07;;;;;;;88.88;67.07;;;10.30;99.90;;;;;;4923163;29;20031;-78
2024/02/19 02:13:36;;;;;;;93.80;70.57;;;10.20;99.90;;;;;;4925181;29;20055;-78
2024/02/19 02:16:02;;;;;;;86.30;65.30;;;10.20;99.90;;;;;;4907879;29;20021;-78
2024/02/19 02:18:31;;;;;;;92.75;66.82;;;10.20;99.90;;;;;;4910339;29;20088;-78
2024/02/19 02:20:58;;;;;;;87.85;67.15;;;10.20;99.90;;;;;;4912025;29;20056;-78
2024/02/19 02:23:26;;;;;;;87.43;67.25;;;10.30;99.90;;;;;;4906963;29;20045;-78
2024/02/19 02:25:55;;;;;;;89.78;67.95;;;10.20;99.90;;;;;;4906756;29;20024;-78
2024/02/19 02:28:22;;;;;;;85.10;66.93;;;10.20;99.90;;;;;;4908871;29;20024;-78
2024/02/19 02:30:49;;;;;;;88.40;65.93;;;10.20;99.90;;;;;;4906781;29;20017;-78
2024/02/19 02:33:15;;;;;;;85.28;67.70;;;10.20;99.90;;;;;;4908687;29;20502;-78
2024/02/19 02:35:41;;;;;;;93.43;69.78;;;10.20;99.90;;;;;;4906244;29;20056;-78
2024/02/19 02:38:07;;;;;;;92.80;69.85;;;10.20;99.90;;;;;;4909726;29;20067;-78
2024/02/19 02:40:32;;;;;;;86.68;66.03;;;10.20;99.90;;;;;;4906926;29;20361;-78
2024/02/19 02:42:58;;;;;;;84.53;68.63;;;10.20;99.90;;;;;;4924532;29;20104;-78
2024/02/19 02:45:24;;;;;;;88.47;68.80;;;10.20;99.90;;;;;;4906644;29;20103;-78
2024/02/19 02:47:50;;;;;;;91.28;69.18;;;10.20;99.90;;;;;;4909763;29;20080;-78
2024/02/19 02:50:15;;;;;;;88.75;69.13;;;10.20;99.90;;;;;;4909214;29;20035;-79
2024/02/19 02:52:42;;;;;;;89.70;70.15;;;10.10;99.90;;;;;;4907461;29;20400;-79
2024/02/19 02:55:08;;;;;;;89.05;70.03;;;10.10;99.90;;;;;;4906381;29;20092;-79
2024/02/19 02:57:33;;;;;;;81.40;64.50;;;10.10;99.90;;;;;;4908152;29;20459;-79
2024/02/19 02:59:59;;;;;;;84.05;65.65;;;10.00;99.90;;;;;;4933461;29;20043;-79
2024/02/19 03:02:25;;;;;;;89.40;69.53;;;9.90;99.90;;;;;;4905189;29;20044;-78
2024/02/19 03:04:50;;;;;;;89.93;71.13;;;9.90;99.90;;;;;;4905839;29;20084;-78
2024/02/19 03:07:16;;;;;;;88.90;68.13;;;9.90;99.90;;;;;;4908949;29;20039;-78
2024/02/19 03:09:42;;;;;;;88.13;69.03;;;9.90;99.90;;;;;;4906836;29;20029;-78
2024/02/19 03:12:08;;;;;;;87.85;69.00;;;10.00;99.90;;;;;;4908943;29;20039;-78
2024/02/19 03:14:34;;;;;;;85.65;67.40;;;10.00;99.90;;;;;;4906119;29;20028;-78
2024/02/19 03:17:00;;;;;;;89.18;65.88;;;10.00;99.90;;;;;;4908036;29;20028;-78
2024/02/19 03:19:26;;;;;;;87.97;69.57;;;10.00;99.90;;;;;;4905209;29;20156;-78
2024/02/19 03:21:54;;;;;;;92.28;72.32;;;10.00;99.90;;;;;;4908444;29;20025;-78
2024/02/19 03:24:20;;;;;;;97.63;71.63;;;10.10;99.90;;;;;;4905582;29;20036;-78
2024/02/19 03:26:46;;;;;;;93.45;70.43;;;10.00;99.90;;;;;;4907420;29;20057;-78
2024/02/19 03:29:13;;;;;;;95.28;72.45;;;10.10;99.90;;;;;;4921740;29;20115;-78
2024/02/19 03:31:39;;;;;;;83.65;66.20;;;10.10;99.90;;;;;;4905549;29;20427;-78
2024/02/19 03:34:05;;;;;;;95.00;69.20;;;10.00;99.90;;;;;;4908154;29;20069;-78
2024/02/19 03:36:31;;;;;;;86.57;67.78;;;10.00;99.90;;;;;;4906311;29;20563;-78
2024/02/19 03:38:57;;;;;;;92.10;70.40;;;10.00;99.90;;;;;;4907619;29;20512;-78
2024/02/19 03:41:24;;;;;;;94.53;73.85;;;9.90;99.90;;;;;;4905602;29;20040;-78
2024/02/19 03:43:49;;;;;;;97.25;72.97;;;9.90;99.90;;;;;;4905173;29;20039;-78
2024/02/19 03:46:15;;;;;;;95.68;73.95;;;9.90;99.90;;;;;;4905263;29;20032;-78
2024/02/19 03:48:42;;;;;;;96.57;72.78;;;9.90;99.90;;;;;;4925464;29;20021;-78
2024/02/19 03:51:10;;;;;;;105.30;76.15;;;9.90;99.90;;;;;;4922028;29;20032;-78
2024/02/19 03:53:36;;;;;;;98.90;72.63;;;9.90;99.90;;;;;;4905657;29;20061;-78
2024/02/19 03:56:02;;;;;;;100.88;76.32;;;9.90;99.90;;;;;;4912830;29;20099;-78
2024/02/19 03:58:27;;;;;;;91.38;70.57;;;9.90;99.90;;;;;;4908800;29;20036;-79
2024/02/19 04:00:53;;;;;;;96.47;74.07;;;9.80;99.90;;;;;;4906777;29;20032;-78
2024/02/19 04:03:19;;;;;;;94.35;74.70;;;9.80;99.90;;;;;;4905984;29;20033;-78
2024/02/19 04:05:44;;;;;;;97.72;75.65;;;9.80;99.90;;;;;;4908027;29;20066;-79
2024/02/19 04:08:10;;;;;;;92.78;73.28;;;9.80;99.90;;;;;;4909334;29;20020;-78
2024/02/19 04:10:36;;;;;;;100.80;76.63;;;9.80;99.90;;;;;;4911749;29;20035;-78
2024/02/19 04:13:01;;;;;;;92.20;68.88;;;9.80;99.90;;;;;;4903780;29;20047;-78
2024/02/19 04:15:27;;;;;;;94.43;72.72;;;9.80;99.90;;;;;;4908048;29;20101;-78
2024/02/19 04:17:53;;;;;;;91.38;73.15;;;9.80;99.90;;;;;;4908516;29;20509;-78
2024/02/19 04:20:20;;;;;;;92.82;74.05;;;9.70;99.90;;;;;;4920173;29;20029;-78
2024/02/19 04:22:45;;;;;;;95.97;74.50;;;9.70;99.90;;;;;;4906884;29;20066;-78
2024/02/19 04:25:13;;;;;;;85.85;68.68;;;9.60;99.90;;;;;;4908125;29;20530;-78
2024/02/19 04:27:39;;;;;;;92.50;69.97;;;9.60;99.90;;;;;;4913113;29;20016;-78
2024/02/19 04:30:05;;;;;;;88.90;70.55;;;9.60;99.90;;;;;;4905830;29;20126;-78
2024/02/19 04:32:34;;;;;;;97.10;73.88;;;9.60;99.90;;;;;;4909540;29;20028;-78
2024/02/19 04:35:02;;;;;;;93.93;73.88;;;9.50;99.90;;;;;;4904558;29;20603;-78
2024/02/19 04:37:30;;;;;;;95.93;72.57;;;9.50;99.90;;;;;;4904894;29;20025;-78
2024/02/19 04:39:56;;;;;;;92.72;73.43;;;9.50;99.90;;;;;;4907437;29;20384;-78
2024/02/19 04:42:22;;;;;;;96.20;74.63;;;9.50;99.90;;;;;;4901622;29;20096;-79
2024/02/19 04:44:47;;;;;;;96.53;73.13;;;9.50;99.90;;;;;;4904499;29;20024;-78
2024/02/19 04:47:13;;;;;;;96.60;73.90;;;9.50;99.90;;;;;;4907669;29;20368;-78
2024/02/19 04:49:39;;;;;;;93.80;69.40;;;9.50;99.90;;;;;;4906228;29;20028;-78
2024/02/19 04:52:05;;;;;;;89.90;69.00;;;9.50;99.90;;;;;;4920260;29;20406;-78
2024/02/19 04:54:31;;;;;;;91.80;71.45;;;9.50;99.90;;;;;;4907210;29;20032;-78
2024/02/19 04:56:57;;;;;;;92.30;70.90;;;9.50;99.90;;;;;;4916547;29;20028;-78
2024/02/19 04:59:23;;;;;;;92.38;71.90;;;9.50;99.90;;;;;;4900807;29;20032;-78
2024/02/19 05:01:50;;;;;;;88.68;70.45;;;9.50;99.90;;;;;;4926959;29;20112;-78
2024/02/19 05:04:16;;;;;;;93.15;71.03;;;9.40;99.90;;;;;;4908620;29;20028;-78
2024/02/19 05:06:42;;;;;;;92.47;71.75;;;9.40;99.90;;;;;;4911429;29;20388;-78
2024/02/19 05:09:07;;;;;;;93.43;70.25;;;9.40;99.90;;;;;;4912729;29;20039;-78
2024/02/19 05:11:33;;;;;;;90.85;72.18;;;9.30;99.90;;;;;;4911642;29;20028;-78
2024/02/19 05:13:59;;;;;;;93.80;72.53;;;9.30;99.90;;;;;;4909328;29;20036;-78
2024/02/19 05:16:28;;;;;;;99.25;71.97;;;9.30;99.90;;;;;;4904092;29;20551;-78
2024/02/19 05:18:59;;;;;;;93.78;73.30;;;9.30;99.90;;;;;;4915906;29;20032;-78
2024/02/19 05:21:25;;;;;;;95.95;74.65;;;9.20;99.90;;;;;;4911822;29;20087;-78
2024/02/19 05:23:51;;;;;;;98.38;72.47;;;9.20;99.90;;;;;;4913908;29;20052;-78
2024/02/19 05:26:26;;;;;;;96.80;73.10;;;9.20;99.90;;;;;;4911074;29;20063;-78
2024/02/19 05:28:53;;;;;;;91.82;69.97;;;9.20;99.90;;;;;;4906343;29;20556;-78
2024/02/19 05:31:38;;;;;;;95.07;75.65;;;9.10;99.90;;;;;;4899447;29;20411;-78
2024/02/19 05:34:06;;;;;;;89.32;70.65;;;9.10;99.90;;;;;;4914280;29;20043;-78
2024/02/19 05:36:32;;;;;;;99.40;76.75;;;9.10;99.90;;;;;;4913911;29;20056;-78
2024/02/19 05:38:59;;;;;;;100.03;75.00;;;9.10;99.90;;;;;;4926120;29;20028;-78
2024/02/19 05:41:25;;;;;;;96.47;72.13;;;9.10;99.90;;;;;;4913381;29;20032;-78
2024/02/19 05:43:51;;;;;;;95.95;73.85;;;9.00;99.90;;;;;;4910252;29;20043;-78
2024/02/19 05:46:20;;;;;;;98.68;75.28;;;9.00;99.90;;;;;;4908541;29;20032;-78
2024/02/19 05:48:46;;;;;;;98.95;74.07;;;8.90;99.90;;;;;;4911220;29;20028;-78
2024/02/19 05:51:12;;;;;;;101.90;75.07;;;8.90;99.90;;;;;;4922038;29;20093;-78
2024/02/19 05:53:38;;;;;;;101.60;75.63;;;9.00;99.90;;;;;;4910757;29;20108;-78
2024/02/19 05:56:04;;;;;;;101.63;75.32;;;8.90;99.90;;;;;;4908269;29;20119;-78
2024/02/19 05:58:31;;;;;;;103.38;75.80;;;8.90;99.90;;;;;;4913296;29;20111;-78
2024/02/19 06:00:56;;;;;;;101.90;77.93;;;8.90;99.90;;;;;;4909161;29;20032;-78
2024/02/19 06:03:24;;;;;;;98.88;79.63;;;8.90;99.90;;;;;;4923584;29;20085;-78
2024/02/19 06:05:50;;;;;;;98.70;74.60;;;9.00;99.90;;;;;;4910373;29;20028;-78
2024/02/19 06:08:16;;;;;;;102.90;75.63;;;9.00;99.90;;;;;;4911092;29;20395;-78
2024/02/19 06:10:45;;;;;;;106.50;78.47;;;9.00;99.90;;;;;;4924522;29;20029;-78
2024/02/19 06:13:11;;;;;;;110.43;79.78;;;9.00;99.90;;;;;;4910104;29;20509;-78
2024/02/19 06:15:37;;;;;;;100.45;75.85;;;8.90;99.90;;;;;;4915503;29;20020;-78
2024/02/19 06:18:03;;;;;;;105.10;78.45;;;8.90;99.90;;;;;;4915666;29;20039;-79
2024/02/19 06:20:29;;;;;;;100.05;75.80;;;8.90;99.90;;;;;;4916282;29;20016;-78
2024/02/19 06:22:54;;;;;;;95.43;73.97;;;8.90;99.90;;;;;;4916240;29;20066;-78
2024/02/19 06:25:20;;;;;;;102.35;78.57;;;8.90;99.90;;;;;;4916303;29;20032;-78
2024/02/19 06:27:46;;;;;;;108.28;78.15;;;8.80;99.90;;;;;;4914943;29;20070;-78
2024/02/19 06:30:12;;;;;;;108.65;78.85;;;8.80;99.90;;;;;;4907651;29;20027;-78
2024/02/19 06:32:37;;;;;;;102.57;79.50;;;8.80;99.90;;;;;;4916430;29;20032;-78
2024/02/19 06:35:04;;;;;;;106.38;80.72;;;8.80;99.90;;;;;;4914618;29;20521;-78
2024/02/19 06:37:30;;;;;;;102.25;79.50;;;8.80;99.90;;;;;;4910832;29;20464;-78
2024/02/19 06:39:56;;;;;;;104.70;80.28;;;8.70;99.90;;;;;;4908292;29;20115;-78
2024/02/19 06:42:22;;;;;;;106.65;78.88;;;8.80;99.90;;;;;;4916695;29;20056;-78
2024/02/19 06:44:48;;;;;;;106.22;78.75;;;8.80;99.90;;;;;;4909998;29;20111;-78
2024/02/19 06:47:13;;;;;;;115.18;82.25;;;8.70;99.90;;;;;;4908625;29;20407;-78
2024/02/19 06:49:39;;;;;;;115.35;84.40;;;8.70;99.90;;;;;;4905049;29;20025;-79
2024/02/19 06:52:05;;;;;;;110.07;81.13;;;8.70;99.90;;;;;;4908651;29;20111;-79
2024/02/19 06:54:31;;;;;;;113.40;83.18;;;8.70;99.90;;;;;;4907431;29;20506;-79
2024/02/19 06:56:56;;;;;;;107.70;81.57;;;8.70;99.90;;;;;;4909332;29;20107;-79
2024/02/19 06:59:22;;;;;;;113.18;83.32;;;8.70;99.90;;;;;;4904576;29;20032;-79
2024/02/19 07:01:49;;;;;;;109.47;84.03;;;8.80;99.90;;;;;;4906783;29;20160;-79
2024/02/19 07:04:15;;;;;;;109.20;83.90;;;8.80;99.90;;;;;;4905746;29;20510;-78
2024/02/19 07:06:40;;;;;;;108.50;82.38;;;8.80;99.90;;;;;;4904377;29;20069;-78
2024/02/19 07:09:09;;;;;;;117.28;85.60;;;8.80;99.90;;;;;;4906958;29;20030;-78
2024/02/19 07:11:35;;;;;;;115.25;82.43;;;8.80;99.90;;;;;;4904812;29;20029;-79
2024/02/19 07:14:00;;;;;;;114.85;85.45;;;8.80;99.90;;;;;;4907512;29;20167;-79
2024/02/19 07:16:26;;;;;;;124.75;90.82;;;8.90;99.90;;;;;;4913702;29;20023;-78
2024/02/19 07:18:52;;;;;;;114.47;85.93;;;8.90;99.90;;;;;;4915495;29;20032;-78
2024/02/19 07:21:17;;;;;;;109.80;84.90;;;8.90;99.90;;;;;;4906500;29;20443;-78
2024/02/19 07:23:43;;;;;;;115.78;86.10;;;8.90;99.90;;;;;;4908462;29;20051;-78
2024/02/19 07:26:09;;;;;;;119.35;85.93;;;9.00;99.90;;;;;;4907106;29;20072;-78
2024/02/19 07:28:35;;;;;;;111.35;83.20;;;9.00;99.90;;;;;;4907890;29;20103;-78
2024/02/19 07:31:00;;;;;;;111.97;86.22;;;9.00;99.90;;;;;;4909575;29;20024;-78
2024/02/19 07:33:29;;;;;;;123.10;88.30;;;9.00;99.90;;;;;;4904534;29;20035;-78
2024/02/19 07:35:55;;;;;;;113.72;83.97;;;9.10;99.90;;;;;;4906544;29;20492;-78
2024/02/19 07:38:21;;;;;;;116.25;86.95;;;9.10;99.90;;;;;;4908544;29;20020;-78
2024/02/19 07:40:50;;;;;;;114.43;83.82;;;9.10;99.90;;;;;;4904497;29;20040;-78
2024/02/19 07:43:15;;;;;;;116.97;88.55;;;9.10;99.90;;;;;;4905700;29;20059;-78
2024/02/19 07:45:41;;;;;;;116.10;84.53;;;9.10;99.90;;;;;;4923118;29;20471;-78
2024/02/19 07:48:07;;;;;;;116.20;86.53;;;9.20;99.90;;;;;;4909020;29;20032;-79
2024/02/19 07:50:36;;;;;;;119.78;87.28;;;9.20;99.90;;;;;;4906218;29;20032;-79
2024/02/19 07:53:02;;;;;;;119.63;88.47;;;9.30;99.90;;;;;;4907407;29;20039;-79
2024/02/19 07:55:30;;;;;;;112.10;83.78;;;9.30;99.90;;;;;;4907298;29;20029;-78
2024/02/19 07:57:56;;;;;;;113.53;84.10;;;9.30;99.90;;;;;;4912632;29;20131;-78
2024/02/19 08:00:21;;;;;;;121.35;87.55;;;9.40;99.90;;;;;;4910079;29;20498;-78
2024/02/19 08:02:47;;;;;;;121.63;85.35;;;9.40;99.90;;;;;;4909163;29;20036;-78
2024/02/19 08:05:13;;;;;;;117.63;86.60;;;9.40;99.90;;;;;;4907742;29;20036;-78
2024/02/19 08:07:39;;;;;;;115.70;87.85;;;9.50;99.90;;;;;;4905069;29;20025;-78
2024/02/19 08:10:05;;;;;;;124.07;89.25;;;9.50;99.90;;;;;;4903932;29;20063;-78
2024/02/19 08:12:34;;;;;;;122.25;86.85;;;9.60;99.90;;;;;;4908905;29;20337;-78
2024/02/19 08:15:01;;;;;;;127.53;91.32;;;9.60;99.90;;;;;;4907300;29;20626;-78
2024/02/19 08:17:26;;;;;;;121.30;89.72;;;9.70;99.90;;;;;;4908270;29;20133;-78
2024/02/19 08:19:52;;;;;;;125.38;89.55;;;9.70;99.90;;;;;;4905477;29;20107;-78
2024/02/19 08:22:18;;;;;;;129.13;93.15;;;9.80;99.90;;;;;;4920131;29;20052;-78
2024/02/19 08:24:43;;;;;;;122.35;89.32;;;9.90;99.90;;;;;;4905714;29;20029;-78
2024/02/19 08:27:09;;;;;;;132.18;94.32;;;9.90;99.90;;;;;;4905662;29;20033;-78
2024/02/19 08:29:35;;;;;;;143.50;100.40;;;10.00;99.90;;;;;;4921101;29;20040;-78
2024/02/19 08:32:01;;;;;;;140.48;99.78;;;10.00;99.90;;;;;;4905633;29;20024;-77
2024/02/19 08:34:27;;;;;;;152.88;107.15;;;10.10;99.90;;;;;;4914678;29;20032;-77
2024/02/19 08:36:53;;;;;;;148.25;103.25;;;10.10;99.90;;;;;;4915117;29;20031;-77
2024/02/19 08:39:18;;;;;;;143.95;102.70;;;10.20;99.90;;;;;;4904406;29;20029;-77
2024/02/19 08:41:44;;;;;;;142.52;101.30;;;10.20;99.90;;;;;;4903074;29;20034;-77
2024/02/19 08:44:10;;;;;;;139.75;100.95;;;10.20;99.90;;;;;;4903160;29;20031;-77
2024/02/19 08:46:35;;;;;;;151.57;105.68;;;10.30;99.90;;;;;;4901905;29;20035;-77
2024/02/19 08:49:01;;;;;;;151.73;110.10;;;10.30;99.90;;;;;;4902214;29;20435;-77
2024/02/19 08:51:28;;;;;;;152.48;109.72;;;10.40;99.90;;;;;;4902259;29;20031;-77
2024/02/19 08:53:54;;;;;;;154.48;110.35;;;10.40;99.90;;;;;;4903702;29;20028;-77
2024/02/19 08:56:20;;;;;;;150.00;107.70;;;10.50;99.90;;;;;;4901770;29;20024;-77
2024/02/19 08:58:45;;;;;;;153.77;109.65;;;10.60;99.90;;;;;;4917181;29;20375;-77
2024/02/19 09:01:13;;;;;;;143.73;107.15;;;10.70;99.90;;;;;;4900520;29;20458;-77
2024/02/19 09:03:39;;;;;;;138.90;101.15;;;10.80;99.90;;;;;;4900221;29;20025;-77
2024/02/19 09:06:05;;;;;;;131.48;95.30;;;10.90;99.90;;;;;;4903428;29;20032;-77
2024/02/19 09:08:31;;;;;;;148.45;104.18;;;11.00;99.90;;;;;;4899618;29;20036;-77
2024/02/19 09:10:56;;;;;;;141.88;100.80;;;11.00;99.90;;;;;;4903604;29;20028;-77
2024/02/19 09:13:22;;;;;;;150.75;107.97;;;11.10;99.90;;;;;;4907263;29;20032;-77
2024/02/19 09:15:48;;;;;;;143.43;102.95;;;11.20;99.90;;;;;;4908398;29;20028;-78
2024/02/19 09:18:13;;;;;;;156.00;107.18;;;11.30;99.90;;;;;;4903165;29;20084;-78
2024/02/19 09:20:39;;;;;;;144.68;104.22;;;11.30;99.90;;;;;;4906104;29;20533;-77
2024/02/19 09:23:05;;;;;;;140.23;99.18;;;11.40;99.90;;;;;;4901931;29;20044;-77
2024/02/19 09:25:31;;;;;;;146.45;102.45;;;11.40;99.90;;;;;;4899397;29;20434;-77
2024/02/19 09:27:57;;;;;;;140.95;105.63;;;11.40;99.90;;;;;;4900563;29;20516;-77
2024/02/19 09:30:23;;;;;;;145.95;106.45;;;11.40;99.90;;;;;;4901333;29;20043;-77
2024/02/19 09:32:52;;;;;;;131.32;99.10;;;11.40;99.90;;;;;;4902926;29;20498;-77
2024/02/19 09:35:18;;;;;;;144.85;101.20;;;11.40;99.90;;;;;;4903302;29;20323;-77
2024/02/19 09:37:44;;;;;;;145.95;105.45;;;11.50;99.90;;;;;;4900322;29;20032;-77
2024/02/19 09:40:13;;;;;;;139.77;103.38;;;11.60;99.90;;;;;;4902611;29;20032;-77
2024/02/19 09:42:39;;;;;;;141.35;100.25;;;11.60;99.90;;;;;;4901013;29;20025;-77
2024/02/19 09:45:08;;;;;;;149.48;103.90;;;11.70;99.90;;;;;;4901664;29;20087;-77
2024/02/19 09:47:35;;;;;;;146.18;102.45;;;11.70;99.90;;;;;;4902967;29;20119;-77
2024/02/19 09:50:01;;;;;;;154.52;103.85;;;11.80;99.90;;;;;;4901877;29;20029;-77
2024/02/19 09:52:28;;;;;;;141.20;98.72;;;11.90;99.90;;;;;;4903045;29;20374;-77
2024/02/19 09:54:54;;;;;;;146.80;100.85;;;11.90;99.90;;;;;;4900972;29;20033;-77
2024/02/19 09:57:20;;;;;;;149.15;103.75;;;12.00;99.90;;;;;;4899870;29;20033;-77
2024/02/19 09:59:48;;;;;;;147.85;103.05;;;11.90;99.90;;;;;;4902302;29;20489;-78
2024/02/19 10:02:18;;;;;;;150.23;110.80;;;11.90;99.90;;;;;;4902774;29;20028;-78
2024/02/19 10:04:48;;;;;;;147.05;106.65;;;12.00;99.90;;;;;;4901379;29;20072;-77
2024/02/19 10:07:20;;;;;;;148.05;109.53;;;12.00;99.90;;;;;;4904745;29;20028;-77
2024/02/19 10:09:47;;;;;;;149.93;108.93;;;12.00;99.90;;;;;;4908644;29;20118;-77
2024/02/19 10:12:12;;;;;;;152.32;109.43;;;12.00;99.90;;;;;;4902705;29;20028;-78
2024/02/19 10:14:38;;;;;;;152.27;100.95;;;12.20;99.90;;;;;;4902049;29;20174;-77
2024/02/19 10:17:05;;;;;;;141.13;101.68;;;12.30;99.90;;;;;;4908369;29;20087;-77
2024/02/19 10:19:31;;;;;;;134.98;95.28;;;12.30;99.90;;;;;;4899183;29;20392;-77
2024/02/19 10:22:00;;;;;;;142.75;98.43;;;12.30;99.90;;;;;;4913147;29;20043;-77
2024/02/19 10:24:26;;;;;;;137.27;95.05;;;12.40;99.90;;;;;;4916893;29;20032;-79
2024/02/19 10:26:52;;;;;;;142.27;99.25;;;12.40;99.90;;;;;;4902238;29;20177;-77
2024/02/19 10:29:18;;;;;;;133.10;94.45;;;12.50;99.90;;;;;;4916767;29;20455;-77
2024/02/19 10:31:44;;;;;;;141.55;94.88;;;12.50;99.90;;;;;;4906100;29;20021;-78
2024/02/19 10:34:11;;;;;;;134.27;95.95;;;12.40;99.90;;;;;;4906371;29;20088;-78
2024/02/19 10:36:37;;;;;;;131.25;94.35;;;12.50;99.90;;;;;;4902151;29;20024;-78
2024/02/19 10:39:05;;;;;;;137.05;102.32;;;12.50;99.90;;;;;;4902657;29;20068;-78
2024/02/19 10:41:31;;;;;;;141.35;102.05;;;12.50;99.90;;;;;;4906418;29;20032;-78
2024/02/19 10:43:57;;;;;;;137.55;97.40;;;12.60;99.90;;;;;;4907617;29;20119;-78
2024/02/19 10:46:23;;;;;;;143.15;95.20;;;12.70;99.90;;;;;;4904469;29;20099;-78
2024/02/19 10:48:52;;;;;;;134.75;94.47;;;12.80;99.90;;;;;;4905764;29;20035;-78
2024/02/19 10:51:23;;;;;;;132.15;93.20;;;12.90;99.90;;;;;;4904905;29;20024;-77
2024/02/19 10:54:00;;;;;;;135.70;96.22;;;12.90;99.90;;;;;;4905394;29;20067;-77
2024/02/19 10:56:37;;;;;;;130.35;88.15;;;13.00;99.90;;;;;;4906143;29;20040;-77
2024/02/19 10:59:03;;;;;;;119.72;84.38;;;13.00;99.90;;;;;;4909558;29;20509;-78
2024/02/19 11:01:48;;;;;;;116.93;79.72;;;13.00;99.90;;;;;;4906315;29;20103;-78
2024/02/19 11:04:17;;;;;;;115.18;80.80;;;13.00;99.90;;;;;;4905732;29;20039;-78
2024/02/19 11:06:54;;;;;;;120.90;85.47;;;13.10;99.90;;;;;;4904557;29;20549;-78
2024/02/19 11:09:20;;;;;;;116.72;80.80;;;13.10;99.90;;;;;;4902305;29;20388;-77
2024/02/19 11:11:55;;;;;;;119.05;84.32;;;13.30;99.90;;;;;;4903983;29;20674;-77
2024/02/19 11:14:25;;;;;;;117.43;78.50;;;13.30;99.90;;;;;;4909411;29;20028;-77
2024/02/19 11:16:56;;;;;;;116.72;78.90;;;13.40;99.90;;;;;;4905298;29;20032;-77
2024/02/19 11:19:22;;;;;;;123.32;90.15;;;13.40;93.30;;;;;;4905813;29;20409;-77
2024/02/19 11:21:48;;;;;;;125.10;87.95;;;13.40;99.90;;;;;;4904081;29;20107;-77
2024/02/19 11:24:14;;;;;;;124.97;83.28;;;13.50;99.90;;;;;;4902867;29;20107;-77
2024/02/19 11:26:43;;;;;;;121.50;83.57;;;13.60;98.60;;;;;;4903741;29;20029;-77
2024/02/19 11:29:14;;;;;;;115.07;82.10;;;13.60;99.90;;;;;;4904866;29;20031;-77
2024/02/19 11:31:40;;;;;;;112.70;79.72;;;13.60;99.90;;;;;;4917219;29;20483;-77
2024/02/19 11:34:26;;;;;;;112.57;78.97;;;13.60;95.90;;;;;;4904859;29;20036;-77
2024/02/19 11:36:54;;;;;;;107.50;77.45;;;13.60;86.90;;;;;;4904187;29;20028;-77
2024/02/19 11:39:20;;;;;;;110.78;77.78;;;13.70;93.90;;;;;;4907899;29;20043;-77
2024/02/19 11:41:46;;;;;;;113.93;80.53;;;13.70;83.90;;;;;;4910763;29;20570;-77
2024/02/19 11:44:14;;;;;;;122.35;82.38;;;13.80;94.90;;;;;;4901457;29;20036;-77
2024/02/19 11:46:41;;;;;;;120.00;81.20;;;13.90;99.30;;;;;;4920002;29;20111;-77
2024/02/19 11:49:10;;;;;;;119.93;82.72;;;14.00;93.10;;;;;;4903381;29;20032;-77
2024/02/19 11:51:39;;;;;;;113.22;79.65;;;14.10;89.90;;;;;;4901553;29;20024;-77
2024/02/19 11:54:08;;;;;;;104.80;76.55;;;14.10;70.70;;;;;;4901738;29;20044;-77
2024/02/19 11:56:54;;;;;;;119.85;80.30;;;14.10;84.80;;;;;;4906464;29;20087;-77
2024/02/19 11:59:21;;;;;;;120.75;77.53;;;14.20;99.90;;;;;;4907899;29;20031;-77
2024/02/19 12:01:52;;;;;;;112.72;77.72;;;14.20;74.90;;;;;;4923870;29;20119;-78
2024/02/19 12:04:18;;;;;;;113.50;81.15;;;14.30;71.40;;;;;;4904150;29;20036;-78
2024/02/19 12:06:44;;;;;;;115.50;79.18;;;14.40;91.40;;;;;;4907834;29;20020;-78
2024/02/19 12:09:12;;;;;;;113.55;78.55;;;14.40;93.00;;;;;;4904857;29;20103;-77
2024/02/19 12:11:40;;;;;;;114.05;79.40;;;14.50;72.20;;;;;;4900763;29;20487;-77
2024/02/19 12:14:09;;;;;;;112.95;77.90;;;14.60;64.70;;;;;;4903892;29;20032;-77
2024/02/19 12:16:35;;;;;;;117.07;80.38;;;14.60;42.60;;;;;;4903889;29;20024;-77
2024/02/19 12:19:01;;;;;;;114.10;77.07;;;14.70;47.00;;;;;;4904398;29;20039;-77
2024/02/19 12:21:27;;;;;;;119.22;78.63;;;14.70;41.20;;;;;;4900451;29;20035;-77